Landsberg Lech Airport ETSA

Flugplatz Daten

Name: Landsberg Lech Airport

Ident: ETSA

Lat: 48,0705986

Long: 10,90600014

Platzhöhe: 2044 ft

IataCode:

City:

Metar

2021/09/18 19:00
GOGG 181900Z VRB02KT 9999 SCT015 29/27 Q1010 RETSA

Taf

2017/12/22 06:36
TAF ETSA 220515Z 2206/2218 23010KT 7000 NSW SCT006 BKN010
TEMPO 2206/2218 24010KT 2500 -DZ SCT003 BKN005 PROB30 2206/2209 22008KT 1200 DZ BKN002 BKN005
RMK WAS ES IST UND WAS ES WAR WIRD UNS ERST BEIM ABSCHIED KLAR BY ETGL
Gewünschte Webcam nicht vorhanden? Dann fügen Sie eine hinzu. Sie wird dann so schnell wie möglich freigeschaltet
Url: Title: